Time;durP1;ratioP1;P1;durP2;ratioP2;P2;SDS_P1;SDS_P2;PMS_P1;PMS_P2;Temp;Humidity;BMP_temperature;BMP_pressure;BME280_temperature;BME280_humidity;BME280_pressure;Samples;Min_cycle;Max_cycle;Signal;HPM_P1;HPM_P2
2021/10/10 00:01:58;;;;;;;10.77;9.20;;;11.20;99.90;;;;;;5112016;28;20255;-74
2021/10/10 00:04:25;;;;;;;9.33;8.43;;;11.10;99.90;;;;;;5111938;28;20198;-74
2021/10/10 00:06:52;;;;;;;10.03;8.43;;;11.10;99.90;;;;;;5111781;28;20237;-74
2021/10/10 00:09:18;;;;;;;10.83;9.03;;;11.10;99.90;;;;;;5112041;28;20210;-74
2021/10/10 00:11:45;;;;;;;9.87;8.77;;;11.00;99.90;;;;;;5111775;28;20210;-74
2021/10/10 00:14:12;;;;;;;9.77;8.73;;;10.90;99.90;;;;;;5111907;28;20226;-72
2021/10/10 00:16:38;;;;;;;9.87;8.67;;;11.00;99.90;;;;;;5111698;28;20269;-72
2021/10/10 00:19:06;;;;;;;11.13;8.47;;;10.90;99.90;;;;;;5111997;28;20238;-72
2021/10/10 00:21:33;;;;;;;9.73;8.73;;;11.00;99.90;;;;;;5112030;28;20198;-72
2021/10/10 00:23:59;;;;;;;10.83;8.90;;;10.90;99.90;;;;;;5111592;28;20206;-72
2021/10/10 00:26:26;;;;;;;11.17;9.13;;;10.90;99.90;;;;;;5111980;28;20202;-72
2021/10/10 00:28:53;;;;;;;11.43;9.30;;;10.90;99.90;;;;;;5110396;28;20578;-72
2021/10/10 00:31:19;;;;;;;10.67;8.63;;;10.80;99.90;;;;;;5111830;27;20237;-72
2021/10/10 00:33:46;;;;;;;10.53;8.37;;;10.80;99.90;;;;;;5111566;28;20736;-72
2021/10/10 00:36:14;;;;;;;10.50;8.67;;;10.80;99.90;;;;;;5111523;28;20279;-72
2021/10/10 00:38:42;;;;;;;12.50;9.17;;;10.80;99.90;;;;;;5111538;28;20259;-72
2021/10/10 00:41:08;;;;;;;9.77;8.83;;;10.80;99.90;;;;;;5111023;28;20208;-72
2021/10/10 00:43:35;;;;;;;11.27;8.80;;;10.80;99.90;;;;;;5111287;28;20202;-72
2021/10/10 00:46:01;;;;;;;9.20;8.30;;;10.80;99.90;;;;;;5111274;28;20259;-72
2021/10/10 00:48:29;;;;;;;13.30;8.97;;;10.80;99.90;;;;;;5111131;28;20275;-72
2021/10/10 00:50:55;;;;;;;9.53;8.63;;;10.80;99.90;;;;;;5111096;28;20218;-72
2021/10/10 00:53:25;;;;;;;10.50;9.20;;;10.80;99.90;;;;;;5110566;28;20262;-72
2021/10/10 00:55:54;;;;;;;9.23;8.33;;;10.70;99.90;;;;;;5089693;28;20261;-72
2021/10/10 00:58:22;;;;;;;9.73;8.40;;;10.80;99.90;;;;;;5090956;28;20238;-72
2021/10/10 01:00:51;;;;;;;9.90;8.83;;;10.80;99.90;;;;;;5090446;28;20244;-73
2021/10/10 01:03:17;;;;;;;11.20;9.20;;;10.70;99.90;;;;;;5090898;28;20256;-72
2021/10/10 01:05:45;;;;;;;9.27;8.33;;;10.70;99.90;;;;;;5090611;28;20221;-72
2021/10/10 01:08:13;;;;;;;10.63;8.43;;;10.60;99.90;;;;;;5090585;28;20259;-72
2021/10/10 01:10:41;;;;;;;10.73;8.73;;;10.60;99.90;;;;;;5090743;28;20249;-73
2021/10/10 01:13:08;;;;;;;13.10;8.70;;;10.60;99.90;;;;;;5090325;28;20235;-72
2021/10/10 01:15:35;;;;;;;9.90;8.33;;;10.60;99.90;;;;;;5089876;28;20257;-72
2021/10/10 01:18:02;;;;;;;10.00;9.00;;;10.60;99.90;;;;;;5089698;28;20632;-73
2021/10/10 01:20:29;;;;;;;10.20;9.10;;;10.60;99.90;;;;;;5090313;28;20239;-72
2021/10/10 01:22:57;;;;;;;9.87;8.87;;;10.60;99.90;;;;;;5090163;28;20275;-73
2021/10/10 01:25:24;;;;;;;12.67;9.30;;;10.60;99.90;;;;;;5090034;28;20295;-72
2021/10/10 01:27:50;;;;;;;9.73;8.47;;;10.50;99.90;;;;;;5090019;28;20272;-72
2021/10/10 01:30:17;;;;;;;10.60;8.67;;;10.50;99.90;;;;;;5089752;28;20222;-73
2021/10/10 01:32:54;;;;;;;10.20;9.20;;;10.50;99.90;;;;;;5090213;28;20234;-73
2021/10/10 01:35:21;;;;;;;9.97;8.83;;;10.50;99.90;;;;;;5089820;28;20187;-73
2021/10/10 01:37:47;;;;;;;10.20;8.27;;;10.50;99.90;;;;;;5089434;28;20541;-73
2021/10/10 01:40:15;;;;;;;9.77;8.20;;;10.50;99.90;;;;;;5089593;28;20308;-73
2021/10/10 01:42:42;;;;;;;10.47;8.70;;;10.50;99.90;;;;;;5089670;28;20207;-73
2021/10/10 01:45:15;;;;;;;9.33;8.43;;;10.40;99.90;;;;;;5089585;28;20272;-73
2021/10/10 01:47:42;;;;;;;11.27;8.73;;;10.40;99.90;;;;;;5089750;28;20221;-73
2021/10/10 01:50:10;;;;;;;10.23;9.13;;;10.40;99.90;;;;;;5089302;28;20685;-74
2021/10/10 01:52:37;;;;;;;10.50;9.13;;;10.40;99.90;;;;;;5089899;28;20244;-74
2021/10/10 01:55:04;;;;;;;10.37;9.00;;;10.40;99.90;;;;;;5089422;28;20637;-72
2021/10/10 01:57:32;;;;;;;10.67;8.83;;;10.30;99.90;;;;;;5089670;28;20218;-72
2021/10/10 01:59:58;;;;;;;11.30;9.30;;;10.30;99.90;;;;;;5088950;28;20296;-72
2021/10/10 02:02:25;;;;;;;10.47;9.03;;;10.20;99.90;;;;;;5089454;28;20284;-72
2021/10/10 02:04:51;;;;;;;10.87;9.43;;;10.20;99.90;;;;;;5089181;28;20203;-72
2021/10/10 02:07:18;;;;;;;11.10;8.60;;;10.20;99.90;;;;;;5089251;28;20246;-72
2021/10/10 02:09:45;;;;;;;9.80;8.77;;;10.20;99.90;;;;;;5089120;28;20203;-72
2021/10/10 02:12:12;;;;;;;13.97;9.00;;;10.20;99.90;;;;;;5089193;28;20219;-72
2021/10/10 02:14:39;;;;;;;10.63;9.47;;;10.20;99.90;;;;;;5089048;28;20259;-72
2021/10/10 02:17:06;;;;;;;11.13;8.70;;;10.20;99.90;;;;;;5089116;28;20299;-73
2021/10/10 02:19:33;;;;;;;9.83;8.70;;;10.10;99.90;;;;;;5089269;28;20203;-73
2021/10/10 02:21:59;;;;;;;11.50;9.47;;;10.10;99.90;;;;;;5089048;28;20242;-74
2021/10/10 02:24:26;;;;;;;10.17;8.87;;;10.10;99.90;;;;;;5089147;28;20206;-73
2021/10/10 02:26:53;;;;;;;11.87;9.10;;;10.20;99.90;;;;;;5088989;28;20203;-72
2021/10/10 02:29:21;;;;;;;10.27;9.00;;;10.10;99.90;;;;;;5088623;28;20751;-73
2021/10/10 02:31:49;;;;;;;11.43;9.27;;;10.10;99.90;;;;;;5088521;28;20684;-73
2021/10/10 02:34:18;;;;;;;10.10;8.73;;;10.10;99.90;;;;;;5088737;28;20252;-73
2021/10/10 02:36:45;;;;;;;12.60;9.80;;;10.00;99.90;;;;;;5088837;28;20672;-72
2021/10/10 02:39:12;;;;;;;11.57;9.40;;;10.00;99.90;;;;;;5088372;28;20575;-73
2021/10/10 02:41:39;;;;;;;10.53;9.17;;;9.90;99.90;;;;;;5088839;28;20364;-73
2021/10/10 02:44:06;;;;;;;11.73;8.73;;;9.90;99.90;;;;;;5088615;28;20691;-72
2021/10/10 02:46:33;;;;;;;10.33;8.87;;;9.90;99.90;;;;;;5088575;28;20202;-72
2021/10/10 02:49:02;;;;;;;12.23;9.67;;;9.80;99.90;;;;;;5088506;28;20305;-72
2021/10/10 02:51:29;;;;;;;10.63;9.43;;;9.80;99.90;;;;;;5088013;28;20268;-72
2021/10/10 02:53:56;;;;;;;9.77;8.77;;;9.80;99.90;;;;;;5088318;28;20222;-72
2021/10/10 02:56:23;;;;;;;11.07;9.30;;;9.80;99.90;;;;;;5087586;28;20226;-72
2021/10/10 02:58:49;;;;;;;11.57;9.57;;;9.80;99.90;;;;;;5088496;28;20234;-73
2021/10/10 03:01:16;;;;;;;10.20;9.07;;;9.80;99.90;;;;;;5088058;28;20238;-73
2021/10/10 03:03:43;;;;;;;10.57;9.27;;;9.80;99.90;;;;;;5088656;28;20234;-73
2021/10/10 03:06:11;;;;;;;10.13;9.03;;;9.70;99.90;;;;;;5088062;28;20632;-73
2021/10/10 03:08:37;;;;;;;13.17;9.77;;;9.70;99.90;;;;;;5088498;28;20264;-73
2021/10/10 03:11:04;;;;;;;10.70;9.40;;;9.70;99.90;;;;;;5088584;28;20244;-73
2021/10/10 03:13:31;;;;;;;11.63;9.40;;;9.60;99.90;;;;;;5088732;28;20222;-73
2021/10/10 03:15:58;;;;;;;11.13;9.20;;;9.50;99.90;;;;;;5088318;28;20207;-73
2021/10/10 03:18:24;;;;;;;11.23;9.33;;;9.50;99.90;;;;;;5088577;28;20214;-73
2021/10/10 03:20:51;;;;;;;11.03;9.33;;;9.50;99.90;;;;;;5088107;28;20762;-73
2021/10/10 03:23:19;;;;;;;10.17;9.10;;;9.50;99.90;;;;;;5088663;28;20230;-73
2021/10/10 03:25:46;;;;;;;11.70;10.03;;;9.40;99.90;;;;;;5088227;28;20198;-72
2021/10/10 03:28:12;;;;;;;10.70;9.60;;;9.40;99.90;;;;;;5088040;28;20266;-72
2021/10/10 03:30:39;;;;;;;10.87;9.10;;;9.40;99.90;;;;;;5088083;28;20275;-73
2021/10/10 03:33:06;;;;;;;13.40;10.73;;;9.30;99.90;;;;;;5088048;28;20283;-72
2021/10/10 03:35:32;;;;;;;11.63;10.43;;;9.30;99.90;;;;;;5088354;28;20237;-72
2021/10/10 03:38:01;;;;;;;11.93;10.40;;;9.20;99.90;;;;;;5087997;28;20521;-72
2021/10/10 03:40:30;;;;;;;14.30;10.83;;;9.20;99.90;;;;;;5088298;28;20215;-72
2021/10/10 03:42:56;;;;;;;14.13;11.10;;;9.20;99.90;;;;;;5087859;28;20673;-72
2021/10/10 03:45:23;;;;;;;12.50;10.57;;;9.10;99.90;;;;;;5087709;28;20671;-72
2021/10/10 03:47:50;;;;;;;12.63;10.70;;;9.10;99.90;;;;;;5087714;28;20669;-73
2021/10/10 03:50:16;;;;;;;12.47;10.50;;;9.10;99.90;;;;;;5087791;28;20227;-73
2021/10/10 03:52:43;;;;;;;14.80;11.30;;;9.10;99.90;;;;;;5087896;28;20219;-73
2021/10/10 03:55:27;;;;;;;14.27;10.50;;;9.10;99.90;;;;;;5087746;28;20234;-73
2021/10/10 03:57:55;;;;;;;12.37;9.87;;;9.10;99.90;;;;;;5088044;28;20291;-72
2021/10/10 04:00:22;;;;;;;13.10;10.73;;;9.10;99.90;;;;;;5087566;28;20238;-71
2021/10/10 04:02:50;;;;;;;11.33;10.07;;;9.10;99.90;;;;;;5089652;28;20207;-72
2021/10/10 04:05:20;;;;;;;12.37;9.90;;;9.00;99.90;;;;;;5091650;28;20301;-72
2021/10/10 04:07:47;;;;;;;11.87;10.03;;;9.00;99.90;;;;;;5091858;28;20195;-72
2021/10/10 04:10:15;;;;;;;13.90;10.93;;;8.90;99.90;;;;;;5091644;28;20224;-72
2021/10/10 04:12:41;;;;;;;11.60;10.03;;;8.90;99.90;;;;;;5091669;28;20226;-72
2021/10/10 04:15:10;;;;;;;12.23;10.50;;;8.90;99.90;;;;;;5091548;28;20276;-72
2021/10/10 04:17:37;;;;;;;14.27;10.53;;;8.90;99.90;;;;;;5091464;28;20234;-71
2021/10/10 04:20:04;;;;;;;11.33;9.83;;;8.90;99.90;;;;;;5091633;28;20206;-72
2021/10/10 04:22:31;;;;;;;13.20;11.17;;;8.80;99.90;;;;;;5091589;28;20207;-72
2021/10/10 04:24:57;;;;;;;12.13;10.33;;;8.80;99.90;;;;;;5091420;28;20203;-72
2021/10/10 04:27:24;;;;;;;11.10;9.83;;;8.70;99.90;;;;;;5091341;28;20241;-72
2021/10/10 04:29:51;;;;;;;13.67;10.77;;;8.70;99.90;;;;;;5091158;28;20243;-71
2021/10/10 04:32:19;;;;;;;13.03;10.73;;;8.80;99.90;;;;;;5091234;28;20199;-72
2021/10/10 04:34:45;;;;;;;14.17;10.87;;;8.80;99.90;;;;;;5090924;28;20230;-71
2021/10/10 04:37:12;;;;;;;19.80;11.30;;;8.80;99.90;;;;;;5090840;28;20266;-71
2021/10/10 04:39:39;;;;;;;14.47;11.20;;;8.80;99.90;;;;;;5090401;28;20207;-71
2021/10/10 04:42:06;;;;;;;13.00;11.33;;;8.70;99.90;;;;;;5090449;28;20234;-71
2021/10/10 04:44:32;;;;;;;14.63;11.30;;;8.80;99.90;;;;;;5090802;28;20218;-71
2021/10/10 04:46:59;;;;;;;12.97;10.53;;;8.80;99.90;;;;;;5090103;28;20272;-71
2021/10/10 04:49:27;;;;;;;13.20;11.27;;;8.80;99.90;;;;;;5090811;28;20288;-71
2021/10/10 04:51:54;;;;;;;14.90;11.23;;;8.70;99.90;;;;;;5090834;28;20198;-71
2021/10/10 04:54:20;;;;;;;15.73;11.43;;;8.80;99.90;;;;;;5090728;28;20271;-71
2021/10/10 04:56:47;;;;;;;13.43;11.57;;;8.80;99.90;;;;;;5090469;28;20628;-72
2021/10/10 04:59:14;;;;;;;15.43;11.27;;;8.80;99.90;;;;;;5090298;28;20203;-71
2021/10/10 05:01:40;;;;;;;15.23;11.97;;;8.70;99.90;;;;;;5090978;28;20244;-72
2021/10/10 05:04:07;;;;;;;13.70;10.93;;;8.80;99.90;;;;;;5090512;28;20215;-72
2021/10/10 05:06:35;;;;;;;14.17;11.87;;;8.80;99.90;;;;;;5090650;28;20260;-72
2021/10/10 05:09:02;;;;;;;19.90;12.27;;;8.80;99.90;;;;;;5090452;28;20644;-72
2021/10/10 05:11:28;;;;;;;15.00;11.73;;;8.70;99.90;;;;;;5090609;28;20230;-72
2021/10/10 05:13:55;;;;;;;14.20;11.23;;;8.70;99.90;;;;;;5089594;28;20225;-72
2021/10/10 05:16:21;;;;;;;18.50;12.03;;;8.70;99.90;;;;;;5090223;28;20248;-72
2021/10/10 05:18:48;;;;;;;14.07;11.70;;;8.50;99.90;;;;;;5090365;28;20319;-72
2021/10/10 05:21:15;;;;;;;15.50;12.27;;;8.30;99.90;;;;;;5090283;28;20298;-74
2021/10/10 05:23:42;;;;;;;16.27;11.73;;;8.30;99.90;;;;;;5090059;28;20648;-73
2021/10/10 05:26:10;;;;;;;14.07;11.70;;;8.20;99.90;;;;;;5089910;28;20249;-73
2021/10/10 05:28:37;;;;;;;16.07;12.07;;;8.30;99.90;;;;;;5089959;28;20227;-73
2021/10/10 05:31:04;;;;;;;14.60;11.50;;;8.30;99.90;;;;;;5090169;28;20203;-72
2021/10/10 05:33:30;;;;;;;14.20;11.53;;;8.40;99.90;;;;;;5089561;28;20669;-73
2021/10/10 05:35:57;;;;;;;16.40;12.13;;;8.40;99.90;;;;;;5095538;27;20261;-70
2021/10/10 05:38:24;;;;;;;15.03;12.07;;;8.40;99.90;;;;;;5089612;28;20269;-72
2021/10/10 05:40:52;;;;;;;16.87;12.20;;;8.40;99.90;;;;;;5089615;28;20231;-72
2021/10/10 05:43:18;;;;;;;17.73;12.43;;;8.50;99.90;;;;;;5089843;28;20215;-72
2021/10/10 05:45:45;;;;;;;16.87;11.90;;;8.40;99.90;;;;;;5089256;28;20692;-72
2021/10/10 05:48:11;;;;;;;14.63;11.07;;;8.40;99.90;;;;;;5089610;28;20263;-72
2021/10/10 05:50:38;;;;;;;16.67;12.03;;;8.40;99.90;;;;;;5088922;28;20251;-71
2021/10/10 05:53:08;;;;;;;14.50;11.80;;;8.40;99.90;;;;;;5113488;27;20704;-71
2021/10/10 05:55:37;;;;;;;17.80;11.97;;;8.40;99.90;;;;;;5105085;27;20234;-71
2021/10/10 05:58:07;;;;;;;13.67;11.87;;;8.30;99.90;;;;;;5089145;28;20227;-72
2021/10/10 06:00:34;;;;;;;13.60;10.53;;;8.40;99.90;;;;;;5088911;28;20268;-72
2021/10/10 06:03:01;;;;;;;14.33;12.27;;;8.40;99.90;;;;;;5089054;28;20723;-72
2021/10/10 06:05:27;;;;;;;15.40;12.57;;;8.40;99.90;;;;;;5088718;28;20281;-72
2021/10/10 06:07:54;;;;;;;14.70;11.60;;;8.40;99.90;;;;;;5088509;28;20207;-71
2021/10/10 06:10:21;;;;;;;15.20;12.40;;;8.40;99.90;;;;;;5089205;28;20211;-71
2021/10/10 06:12:47;;;;;;;14.77;11.90;;;8.50;99.90;;;;;;5098208;27;20299;-72
2021/10/10 06:15:16;;;;;;;17.53;12.93;;;8.60;99.90;;;;;;5122723;27;20730;-72
2021/10/10 06:17:42;;;;;;;16.63;12.47;;;8.60;99.90;;;;;;5110030;27;20286;-72
2021/10/10 06:20:09;;;;;;;19.00;13.03;;;8.60;99.90;;;;;;5109507;28;20230;-73
2021/10/10 06:22:36;;;;;;;16.87;12.53;;;8.70;99.90;;;;;;5106667;28;20722;-73
2021/10/10 06:25:04;;;;;;;16.37;12.27;;;8.70;99.90;;;;;;5093933;28;20334;-73
2021/10/10 06:27:31;;;;;;;16.77;12.83;;;8.80;99.90;;;;;;5084796;28;20719;-73
2021/10/10 06:29:58;;;;;;;17.13;12.40;;;8.70;99.90;;;;;;5084938;28;20211;-73
2021/10/10 06:32:26;;;;;;;16.13;11.97;;;8.80;99.90;;;;;;5085186;28;20256;-73
2021/10/10 06:34:52;;;;;;;15.93;12.27;;;8.80;99.90;;;;;;5090703;28;20729;-73
2021/10/10 06:37:19;;;;;;;16.10;12.63;;;8.80;99.90;;;;;;5105400;28;20248;-73
2021/10/10 06:39:45;;;;;;;15.10;12.63;;;8.90;99.90;;;;;;5105515;28;20205;-73
2021/10/10 06:42:12;;;;;;;17.83;13.20;;;8.90;99.90;;;;;;5105682;28;20710;-73
2021/10/10 06:44:39;;;;;;;18.67;12.43;;;8.90;99.90;;;;;;5105358;28;20209;-73
2021/10/10 06:47:06;;;;;;;16.23;12.60;;;8.90;99.90;;;;;;5104595;28;20247;-73
2021/10/10 06:49:34;;;;;;;14.23;12.00;;;9.00;99.90;;;;;;5104885;28;20279;-73
2021/10/10 06:52:01;;;;;;;16.73;12.87;;;9.00;99.90;;;;;;5104476;28;20794;-73
2021/10/10 06:54:28;;;;;;;18.13;13.20;;;9.00;99.90;;;;;;5105304;28;20259;-73
2021/10/10 06:56:54;;;;;;;14.93;13.00;;;9.00;99.90;;;;;;5105002;28;20233;-73
2021/10/10 06:59:21;;;;;;;18.00;14.17;;;9.00;99.90;;;;;;5104925;28;20808;-74
2021/10/10 07:01:48;;;;;;;14.83;12.83;;;9.00;99.90;;;;;;5105104;28;20259;-74
2021/10/10 07:04:15;;;;;;;16.60;12.63;;;9.10;99.90;;;;;;5105209;28;20248;-73
2021/10/10 07:06:43;;;;;;;15.63;13.00;;;9.20;99.90;;;;;;5105297;28;20472;-73
2021/10/10 07:09:11;;;;;;;18.67;12.93;;;9.20;99.90;;;;;;5105031;28;20772;-73
2021/10/10 07:11:38;;;;;;;17.70;13.33;;;9.20;99.90;;;;;;5096871;28;20219;-73
2021/10/10 07:14:05;;;;;;;16.30;13.10;;;9.30;99.90;;;;;;5084267;28;20306;-73
2021/10/10 07:16:33;;;;;;;16.10;12.90;;;9.30;99.90;;;;;;5084494;28;20207;-73
2021/10/10 07:19:00;;;;;;;18.20;13.60;;;9.40;99.90;;;;;;5084531;28;20230;-73
2021/10/10 07:21:39;;;;;;;16.30;13.40;;;9.50;99.90;;;;;;5084813;28;20210;-73
2021/10/10 07:26:51;;;;;;;17.37;13.00;;;9.60;99.90;;;;;;5084470;28;20300;-73
2021/10/10 07:29:18;;;;;;;17.00;13.27;;;9.70;99.90;;;;;;5084555;28;20210;-73
2021/10/10 07:31:45;;;;;;;15.53;12.60;;;9.70;99.90;;;;;;5084495;28;20615;-73
2021/10/10 07:34:11;;;;;;;17.10;13.47;;;9.80;99.90;;;;;;5084225;28;20210;-73
2021/10/10 07:36:38;;;;;;;17.07;13.80;;;9.90;99.90;;;;;;5084306;28;20238;-73
2021/10/10 07:39:04;;;;;;;16.10;12.93;;;10.00;99.90;;;;;;5087542;28;20261;-73
2021/10/10 07:41:35;;;;;;;14.17;12.67;;;10.10;99.90;;;;;;5088475;28;20210;-73
2021/10/10 07:44:05;;;;;;;16.87;13.10;;;10.10;99.90;;;;;;5087793;28;20209;-73
2021/10/10 07:46:36;;;;;;;15.17;12.83;;;10.20;99.90;;;;;;5088088;28;20217;-73
2021/10/10 07:49:03;;;;;;;16.40;13.07;;;10.30;99.90;;;;;;5087916;28;20788;-73
2021/10/10 07:51:30;;;;;;;14.50;12.53;;;10.40;99.90;;;;;;5088489;28;20276;-73
2021/10/10 07:53:57;;;;;;;17.40;12.87;;;10.40;99.90;;;;;;5088209;28;20202;-73
2021/10/10 07:56:25;;;;;;;15.63;12.67;;;10.50;99.90;;;;;;5098795;28;20202;-73
2021/10/10 07:58:53;;;;;;;14.03;12.03;;;10.50;99.90;;;;;;5108107;27;20342;-73
2021/10/10 08:01:20;;;;;;;18.70;13.10;;;10.60;99.90;;;;;;5107345;28;20294;-73
2021/10/10 08:03:46;;;;;;;17.20;13.03;;;10.60;99.90;;;;;;5108285;28;20216;-73
2021/10/10 08:06:13;;;;;;;16.70;12.77;;;10.60;99.90;;;;;;5108217;28;20668;-73
2021/10/10 08:08:40;;;;;;;18.13;13.23;;;10.70;99.90;;;;;;5108702;28;20210;-73
2021/10/10 08:11:06;;;;;;;14.23;12.73;;;10.80;99.90;;;;;;5108574;28;20271;-73
2021/10/10 08:13:33;;;;;;;15.07;11.87;;;10.90;99.90;;;;;;5108810;28;20548;-73
2021/10/10 08:16:01;;;;;;;14.87;12.50;;;10.90;99.90;;;;;;5109166;27;20206;-74
2021/10/10 08:18:28;;;;;;;17.17;13.00;;;11.00;99.90;;;;;;5125735;27;20328;-74
2021/10/10 08:20:55;;;;;;;15.63;12.23;;;11.10;99.90;;;;;;5123063;27;20221;-74
2021/10/10 08:23:21;;;;;;;15.07;12.03;;;11.10;99.90;;;;;;5104703;27;20201;-73
2021/10/10 08:25:48;;;;;;;14.20;11.13;;;11.20;99.90;;;;;;5104682;28;20271;-73
2021/10/10 08:28:15;;;;;;;14.30;11.67;;;11.30;99.90;;;;;;5100899;28;20222;-73
2021/10/10 08:30:41;;;;;;;13.53;11.23;;;11.40;99.90;;;;;;5103091;28;20581;-73
2021/10/10 08:33:09;;;;;;;13.50;11.13;;;11.40;99.90;;;;;;5108346;28;20217;-73
2021/10/10 08:35:36;;;;;;;14.43;11.67;;;11.50;99.80;;;;;;5094596;28;20229;-73
2021/10/10 08:38:03;;;;;;;14.63;11.20;;;11.60;99.70;;;;;;5100747;28;20334;-73
2021/10/10 08:40:29;;;;;;;12.83;10.70;;;11.70;99.40;;;;;;5093785;28;20199;-73
2021/10/10 08:42:59;;;;;;;13.27;10.30;;;11.70;98.80;;;;;;5108081;28;20311;-73
2021/10/10 08:45:29;;;;;;;15.40;10.47;;;11.80;98.60;;;;;;5093629;28;20302;-73
2021/10/10 08:47:56;;;;;;;12.47;10.43;;;11.90;98.40;;;;;;5101161;28;20202;-73
2021/10/10 08:50:26;;;;;;;11.87;10.23;;;12.00;98.00;;;;;;5098299;28;20612;-73
2021/10/10 08:52:57;;;;;;;12.93;9.77;;;12.10;97.90;;;;;;5096205;28;20264;-73
2021/10/10 08:55:25;;;;;;;10.27;9.17;;;12.10;97.80;;;;;;5099009;28;20202;-73
2021/10/10 08:57:52;;;;;;;15.27;10.23;;;12.20;97.30;;;;;;5099139;28;20285;-73
2021/10/10 09:00:22;;;;;;;11.93;9.80;;;12.20;97.10;;;;;;5098507;28;20649;-73
2021/10/10 09:02:51;;;;;;;10.60;9.40;;;12.30;97.10;;;;;;5097881;27;20210;-73
2021/10/10 09:05:17;;;;;;;10.67;8.40;;;12.30;97.10;;;;;;5097613;28;20211;-73
2021/10/10 09:07:45;;;;;;;12.47;9.00;;;12.40;97.10;;;;;;5094651;28;20231;-73
2021/10/10 09:10:21;;;;;;;11.13;8.63;;;12.50;96.90;;;;;;5097197;28;20234;-75
2021/10/10 09:12:48;;;;;;;12.77;9.37;;;12.50;97.00;;;;;;5097949;28;20197;-75
2021/10/10 09:15:18;;;;;;;10.93;9.73;;;12.60;97.20;;;;;;5096537;28;20202;-75
2021/10/10 09:17:56;;;;;;;12.77;9.13;;;12.70;97.00;;;;;;5100162;28;20190;-73
2021/10/10 09:20:30;;;;;;;10.00;8.97;;;12.70;96.50;;;;;;5097199;28;20716;-73
2021/10/10 09:22:59;;;;;;;12.93;8.90;;;12.80;96.50;;;;;;5098026;28;20190;-73
2021/10/10 09:25:26;;;;;;;8.87;7.97;;;12.90;96.30;;;;;;5098871;28;20248;-73
2021/10/10 09:27:53;;;;;;;11.70;7.47;;;12.90;96.30;;;;;;5096079;28;20229;-73
2021/10/10 09:30:22;;;;;;;10.33;7.57;;;13.00;96.50;;;;;;5096283;28;20202;-73
2021/10/10 09:32:54;;;;;;;10.90;7.70;;;13.10;96.00;;;;;;5098035;28;20202;-73
2021/10/10 09:35:27;;;;;;;13.27;7.80;;;13.20;95.40;;;;;;5097178;28;20198;-73
2021/10/10 09:38:12;;;;;;;10.87;7.23;;;13.30;95.40;;;;;;5091840;28;20194;-73
2021/10/10 09:40:49;;;;;;;10.60;7.60;;;13.40;95.20;;;;;;5096871;28;20223;-73
2021/10/10 09:43:15;;;;;;;9.57;7.23;;;13.50;95.00;;;;;;5095136;28;20194;-73
2021/10/10 09:45:53;;;;;;;7.70;7.00;;;13.60;94.50;;;;;;5094767;28;20206;-73
2021/10/10 09:48:29;;;;;;;10.37;6.30;;;13.60;94.60;;;;;;5100495;28;20222;-73
2021/10/10 09:50:55;;;;;;;8.67;6.20;;;13.70;94.30;;;;;;5105486;28;20222;-74
2021/10/10 09:53:32;;;;;;;7.93;6.03;;;13.80;94.30;;;;;;5095576;28;20283;-73
2021/10/10 09:56:00;;;;;;;7.80;5.97;;;13.90;93.70;;;;;;5098977;28;20202;-73
2021/10/10 09:58:40;;;;;;;7.40;5.70;;;13.90;94.10;;;;;;5097183;28;20257;-73
2021/10/10 10:01:14;;;;;;;6.30;5.70;;;14.00;93.70;;;;;;5096724;28;20230;-73
2021/10/10 10:03:56;;;;;;;8.13;5.63;;;14.10;93.90;;;;;;5094559;28;20213;-74
2021/10/10 10:06:23;;;;;;;9.27;5.70;;;14.20;93.00;;;;;;5099091;28;20202;-73
2021/10/10 10:08:51;;;;;;;9.20;5.60;;;14.20;92.10;;;;;;5097166;28;20275;-73
2021/10/10 10:11:18;;;;;;;7.23;5.77;;;14.30;92.20;;;;;;5099791;28;20723;-73
2021/10/10 10:13:45;;;;;;;8.93;5.50;;;14.30;92.30;;;;;;5106013;28;20621;-74
2021/10/10 10:16:13;;;;;;;6.73;5.57;;;14.40;91.60;;;;;;5105576;27;20833;-73
2021/10/10 10:18:41;;;;;;;7.07;5.63;;;14.40;91.80;;;;;;5093805;28;20226;-74
2021/10/10 10:21:09;;;;;;;7.33;5.90;;;14.50;91.70;;;;;;5085159;28;20217;-73
2021/10/10 10:23:37;;;;;;;7.83;5.73;;;14.50;91.50;;;;;;5084925;28;20238;-73
2021/10/10 10:26:05;;;;;;;6.80;5.57;;;14.50;91.80;;;;;;5085157;28;20289;-74
2021/10/10 10:28:33;;;;;;;9.23;5.50;;;14.50;92.30;;;;;;5085033;28;20249;-74
2021/10/10 10:31:00;;;;;;;7.77;6.37;;;14.60;92.50;;;;;;5084705;28;20203;-74
2021/10/10 10:33:30;;;;;;;6.43;5.83;;;14.70;91.90;;;;;;5085127;28;20505;-74
2021/10/10 10:35:57;;;;;;;6.90;6.20;;;14.80;91.60;;;;;;5083697;28;20210;-74
2021/10/10 10:38:43;;;;;;;7.80;5.50;;;15.00;91.50;;;;;;5084864;28;20692;-74
2021/10/10 10:41:48;;;;;;;6.17;5.37;;;15.10;91.20;;;;;;5085004;28;20202;-74
2021/10/10 10:44:39;;;;;;;8.97;5.67;;;15.20;91.30;;;;;;5085173;28;20221;-74
2021/10/10 10:47:07;;;;;;;7.67;5.30;;;15.30;90.10;;;;;;5084632;28;20198;-74
2021/10/10 10:49:58;;;;;;;10.33;5.40;;;15.40;89.90;;;;;;5093638;28;20222;-73
2021/10/10 10:52:27;;;;;;;9.80;6.40;;;15.40;90.60;;;;;;5095224;28;20250;-73
2021/10/10 10:54:55;;;;;;;10.17;5.57;;;15.50;89.60;;;;;;5094111;28;20207;-73
2021/10/10 10:57:34;;;;;;;10.47;5.13;;;15.50;89.30;;;;;;5094733;28;20202;-73
2021/10/10 11:00:04;;;;;;;9.23;4.97;;;15.70;88.90;;;;;;5094227;28;20242;-74
2021/10/10 11:02:52;;;;;;;6.97;5.13;;;15.80;89.20;;;;;;5093262;28;20230;-73
2021/10/10 11:05:33;;;;;;;6.93;5.53;;;15.90;88.00;;;;;;5094009;28;20311;-74
2021/10/10 11:08:01;;;;;;;8.10;5.90;;;15.90;87.50;;;;;;5094419;28;20195;-73
2021/10/10 11:10:28;;;;;;;8.30;5.43;;;16.00;86.50;;;;;;5093262;28;20222;-73
2021/10/10 11:13:23;;;;;;;9.03;5.77;;;16.00;86.40;;;;;;5095659;28;20197;-74
2021/10/10 11:15:50;;;;;;;9.47;5.40;;;16.00;87.50;;;;;;5104234;28;20656;-74
2021/10/10 11:18:18;;;;;;;7.40;5.50;;;16.20;87.40;;;;;;5092182;28;20206;-73
2021/10/10 11:20:49;;;;;;;10.50;6.23;;;16.10;87.00;;;;;;5093338;28;20254;-74
2021/10/10 11:23:16;;;;;;;7.73;6.07;;;16.20;87.10;;;;;;5104914;28;20197;-74
2021/10/10 11:25:43;;;;;;;10.07;6.77;;;16.30;86.70;;;;;;5109823;28;20252;-74
2021/10/10 11:28:10;;;;;;;8.93;6.80;;;16.40;86.90;;;;;;5105059;28;20641;-74
2021/10/10 11:30:37;;;;;;;6.33;5.73;;;16.50;86.50;;;;;;5101628;28;20284;-74
2021/10/10 11:33:04;;;;;;;7.70;6.10;;;16.50;86.50;;;;;;5098874;28;20694;-73
2021/10/10 11:35:31;;;;;;;8.50;6.30;;;16.50;87.00;;;;;;5101546;28;20690;-73
2021/10/10 11:38:03;;;;;;;10.07;6.23;;;16.60;87.70;;;;;;5093033;28;20229;-73
2021/10/10 11:40:30;;;;;;;9.73;6.20;;;16.60;86.90;;;;;;5093953;28;20822;-74
2021/10/10 11:42:56;;;;;;;9.57;5.90;;;16.70;88.70;;;;;;5098466;28;20243;-74
2021/10/10 11:45:25;;;;;;;6.60;5.90;;;16.80;88.50;;;;;;5105004;28;20230;-74
2021/10/10 11:47:52;;;;;;;7.00;6.30;;;16.90;88.20;;;;;;5104185;28;20779;-73
2021/10/10 11:50:19;;;;;;;7.87;6.30;;;17.00;88.80;;;;;;5098156;28;20711;-74
2021/10/10 11:52:54;;;;;;;9.33;6.00;;;17.10;88.40;;;;;;5109249;28;20430;-74
2021/10/10 11:55:23;;;;;;;9.43;6.23;;;17.20;86.70;;;;;;5092365;28;20656;-74
2021/10/10 11:57:54;;;;;;;6.20;5.60;;;17.30;86.40;;;;;;5101262;28;20194;-74
2021/10/10 12:00:26;;;;;;;7.10;6.40;;;17.40;86.80;;;;;;5096203;28;20242;-74
2021/10/10 12:02:53;;;;;;;7.17;5.63;;;17.40;87.10;;;;;;5091748;28;20194;-73
2021/10/10 12:05:22;;;;;;;6.83;5.73;;;17.60;86.00;;;;;;5091903;28;20293;-74
2021/10/10 12:07:52;;;;;;;6.00;5.40;;;17.60;85.70;;;;;;5100348;28;20290;-74
2021/10/10 12:10:20;;;;;;;7.20;5.17;;;17.70;84.00;;;;;;5104238;28;20233;-74
2021/10/10 12:12:46;;;;;;;6.03;5.53;;;17.60;82.80;;;;;;5099214;28;20949;-74
2021/10/10 12:15:17;;;;;;;5.60;4.83;;;17.70;83.90;;;;;;5083935;28;20207;-74
2021/10/10 12:17:48;;;;;;;6.17;5.33;;;17.80;83.00;;;;;;5084123;28;20292;-74
2021/10/10 12:20:24;;;;;;;7.63;5.10;;;17.80;82.40;;;;;;5083562;28;20361;-73
2021/10/10 12:22:52;;;;;;;6.50;5.63;;;17.90;81.00;;;;;;5083807;28;20199;-74
2021/10/10 12:25:28;;;;;;;6.13;5.53;;;18.00;82.20;;;;;;5101431;28;20222;-74
2021/10/10 12:27:57;;;;;;;6.47;5.70;;;18.10;81.30;;;;;;5107768;28;20648;-74
2021/10/10 12:30:29;;;;;;;9.37;5.80;;;18.20;82.10;;;;;;5107666;28;20210;-74
2021/10/10 12:32:58;;;;;;;5.90;5.30;;;18.30;82.90;;;;;;5107828;28;20202;-74
2021/10/10 12:35:25;;;;;;;7.53;5.00;;;18.40;81.70;;;;;;5107614;27;20685;-73
2021/10/10 12:37:53;;;;;;;7.03;5.33;;;18.50;81.50;;;;;;5107830;28;20616;-74
2021/10/10 12:40:30;;;;;;;9.20;6.00;;;18.60;80.70;;;;;;5107683;28;20256;-74
2021/10/10 12:42:58;;;;;;;10.07;6.03;;;18.70;80.70;;;;;;5107837;28;20306;-74
2021/10/10 12:45:29;;;;;;;6.27;5.60;;;18.80;81.30;;;;;;5107476;28;20722;-74
2021/10/10 12:48:06;;;;;;;7.27;5.17;;;18.90;81.60;;;;;;5107341;28;20719;-74
2021/10/10 12:50:33;;;;;;;5.93;5.10;;;19.00;80.20;;;;;;5102068;28;20580;-73